createdAt,value
2018-02-22T00:01:01.724Z,98354.84
2018-02-22T00:03:29.432Z,98349.22
2018-02-22T00:05:56.951Z,98355.53
2018-02-22T00:08:24.456Z,98346.05
2018-02-22T00:10:52.003Z,98346.79
2018-02-22T00:13:19.567Z,98340.03
2018-02-22T00:15:47.083Z,98335.36
2018-02-22T00:18:14.580Z,98338.33
2018-02-22T00:20:42.138Z,98330.92
2018-02-22T00:23:09.699Z,98330.30
2018-02-22T00:25:37.259Z,98328.91
2018-02-22T00:28:04.755Z,98329.72
2018-02-22T00:30:32.282Z,98320.92
2018-02-22T00:32:59.776Z,98322.61
2018-02-22T00:35:27.296Z,98321.36
2018-02-22T00:37:54.859Z,98321.06
2018-02-22T00:40:22.376Z,98324.87
2018-02-22T00:42:49.982Z,98316.16
2018-02-22T00:45:17.499Z,98317.33
2018-02-22T00:47:45.006Z,98313.11
2018-02-22T00:50:12.531Z,98314.08
2018-02-22T00:52:40.027Z,98318.62
2018-02-22T00:55:07.543Z,98315.74
2018-02-22T00:57:36.052Z,98317.47
2018-02-22T01:00:03.611Z,98321.73
2018-02-22T01:02:31.102Z,98316.09
2018-02-22T01:04:58.728Z,98314.13
2018-02-22T01:07:26.214Z,98315.60
2018-02-22T01:09:53.739Z,98320.72
2018-02-22T01:12:21.314Z,98318.80
2018-02-22T01:14:48.827Z,98319.45
2018-02-22T01:17:16.323Z,98314.42
2018-02-22T01:19:43.857Z,98316.16
2018-02-22T01:22:11.461Z,98317.43
2018-02-22T01:24:38.980Z,98307.86
2018-02-22T01:27:06.588Z,98311.42
2018-02-22T01:29:34.128Z,98307.98
2018-02-22T01:32:01.619Z,98305.70
2018-02-22T01:34:29.163Z,98302.73
2018-02-22T01:36:56.660Z,98304.56
2018-02-22T01:39:24.168Z,98297.62
2018-02-22T01:41:51.683Z,98291.70
2018-02-22T01:44:19.179Z,98294.81
2018-02-22T01:46:46.709Z,98297.45
2018-02-22T01:49:14.216Z,98287.67
2018-02-22T01:51:41.851Z,98288.32
2018-02-22T01:54:09.343Z,98285.23
2018-02-22T01:56:36.862Z,98281.30
2018-02-22T01:59:04.403Z,98280.48
2018-02-22T02:01:31.938Z,98286.06
2018-02-22T02:03:59.432Z,98281.71
2018-02-22T02:06:26.964Z,98283.30
2018-02-22T02:08:54.472Z,98280.34
2018-02-22T02:11:21.995Z,98278.06
2018-02-22T02:13:49.491Z,98278.48
2018-02-22T02:16:17.007Z,98280.77
2018-02-22T02:18:44.667Z,98271.91
2018-02-22T02:21:12.280Z,98278.72
2018-02-22T02:23:39.778Z,98267.55
2018-02-22T02:26:07.505Z,98275.69
2018-02-22T02:28:35.015Z,98264.89
2018-02-22T02:31:02.532Z,98271.00
2018-02-22T02:33:30.036Z,98269.80
2018-02-22T02:35:57.555Z,98267.80
2018-02-22T02:38:25.080Z,98266.10
2018-02-22T02:40:52.856Z,98263.17
2018-02-22T02:43:20.348Z,98261.95
2018-02-22T02:45:47.877Z,98267.33
2018-02-22T02:48:15.424Z,98265.25
2018-02-22T02:50:43.086Z,98261.09
2018-02-22T02:53:10.589Z,98255.51
2018-02-22T02:55:38.125Z,98258.86
2018-02-22T02:58:05.623Z,98249.39
2018-02-22T03:00:33.158Z,98247.11
2018-02-22T03:03:00.657Z,98244.77
2018-02-22T03:05:28.155Z,98251.89
2018-02-22T03:07:55.667Z,98253.42
2018-02-22T03:10:23.284Z,98246.03
2018-02-22T03:12:50.811Z,98248.11
2018-02-22T03:15:18.372Z,98242.67
2018-02-22T03:17:45.939Z,98242.10
2018-02-22T03:20:13.498Z,98242.84
2018-02-22T03:22:41.035Z,98238.30
2018-02-22T03:25:08.537Z,98242.14
2018-02-22T03:27:36.099Z,98232.63
2018-02-22T03:30:03.600Z,98236.39
2018-02-22T03:32:31.192Z,98236.62
2018-02-22T03:34:58.683Z,98236.27
2018-02-22T03:37:26.224Z,98227.77
2018-02-22T03:39:53.719Z,98227.31
2018-02-22T03:42:21.251Z,98228.55
2018-02-22T03:44:48.756Z,98218.15
2018-02-22T03:47:16.299Z,98214.57
2018-02-22T03:49:43.787Z,98218.61
2018-02-22T03:52:11.484Z,98224.05
2018-02-22T03:54:39.004Z,98228.59
2018-02-22T03:57:06.534Z,98218.57
2018-02-22T03:59:34.031Z,98213.77
2018-02-22T04:02:01.603Z,98216.00
2018-02-22T04:04:29.160Z,98214.26
2018-02-22T04:06:56.719Z,98215.72
2018-02-22T04:09:24.296Z,98213.99
2018-02-22T04:11:51.815Z,98223.50
2018-02-22T04:14:19.311Z,98220.61
2018-02-22T04:16:46.860Z,98216.22
2018-02-22T04:19:14.367Z,98216.80
2018-02-22T04:21:41.883Z,98211.75
2018-02-22T04:24:09.434Z,98219.02
2018-02-22T04:26:36.948Z,98222.95
2018-02-22T04:29:04.469Z,98219.48
2018-02-22T04:31:32.006Z,98214.78
2018-02-22T04:33:59.516Z,98218.55
2018-02-22T04:36:27.027Z,98209.42
2018-02-22T04:38:54.519Z,98216.28
2018-02-22T04:41:22.035Z,98211.36
2018-02-22T04:43:49.576Z,98210.09
2018-02-22T04:46:17.112Z,98213.09
2018-02-22T04:48:44.632Z,98206.66
2018-02-22T04:51:12.202Z,98217.36
2018-02-22T04:53:39.728Z,98213.62
2018-02-22T04:56:07.286Z,98218.89
2018-02-22T04:58:34.864Z,98215.44
2018-02-22T05:01:02.425Z,98213.77
2018-02-22T05:03:29.955Z,98207.20
2018-02-22T05:05:57.616Z,98211.74
2018-02-22T05:08:25.135Z,98210.66
2018-02-22T05:10:52.648Z,98213.62
2018-02-22T05:13:20.193Z,98218.44
2018-02-22T05:15:47.711Z,98214.91
2018-02-22T05:18:15.243Z,98219.84
2018-02-22T05:20:42.799Z,98209.86
2018-02-22T05:23:10.323Z,98216.48
2018-02-22T05:25:37.952Z,98211.75
2018-02-22T05:28:05.471Z,98218.14
2018-02-22T05:30:33.040Z,98213.80
2018-02-22T05:33:00.599Z,98213.40
2018-02-22T05:35:28.087Z,98218.74
2018-02-22T05:37:55.615Z,98222.17
2018-02-22T05:40:23.181Z,98214.67
2018-02-22T05:42:50.715Z,98212.91
2018-02-22T05:45:18.228Z,98219.27
2018-02-22T05:47:45.751Z,98221.47
2018-02-22T05:50:13.257Z,98216.34
2018-02-22T05:52:40.772Z,98219.80
2018-02-22T05:55:08.336Z,98217.54
2018-02-22T05:57:35.889Z,98215.07
2018-02-22T06:00:03.404Z,98211.22
2018-02-22T06:02:30.966Z,98218.14
2018-02-22T06:04:58.456Z,98216.20
2018-02-22T06:07:25.995Z,98211.88
2018-02-22T06:09:53.492Z,98218.17
2018-02-22T06:12:21.040Z,98221.28
2018-02-22T06:14:48.612Z,98220.58
2018-02-22T06:17:16.167Z,98222.42
2018-02-22T06:19:43.732Z,98219.88
2018-02-22T06:22:11.236Z,98223.66
2018-02-22T06:24:38.836Z,98220.62
2018-02-22T06:27:06.344Z,98214.92
2018-02-22T06:29:33.863Z,98212.45
2018-02-22T06:32:01.415Z,98221.86
2018-02-22T06:34:28.931Z,98222.88
2018-02-22T06:36:56.547Z,98220.86
2018-02-22T06:39:24.112Z,98224.64
2018-02-22T06:41:51.612Z,98226.19
2018-02-22T06:44:19.143Z,98220.96
2018-02-22T06:46:46.672Z,98222.20
2018-02-22T06:49:14.192Z,98225.13
2018-02-22T06:51:41.691Z,98219.21
2018-02-22T06:54:09.252Z,98218.95
2018-02-22T06:56:36.768Z,98212.56
2018-02-22T06:59:04.291Z,98218.65
2018-02-22T07:01:31.837Z,98222.77
2018-02-22T07:03:59.351Z,98214.98
2018-02-22T07:06:26.957Z,98214.72
2018-02-22T07:08:54.475Z,98220.77
2018-02-22T07:11:22.036Z,98227.07
2018-02-22T07:13:49.567Z,98226.02
2018-02-22T07:16:17.087Z,98227.72
2018-02-22T07:18:44.604Z,98218.09
2018-02-22T07:21:12.119Z,98232.26
2018-02-22T07:23:39.632Z,98227.82
2018-02-22T07:26:07.130Z,98226.90
2018-02-22T07:28:34.648Z,98227.63
2018-02-22T07:31:02.160Z,98212.24
2018-02-22T07:33:29.686Z,98216.31
2018-02-22T07:35:57.171Z,98210.34
2018-02-22T07:38:24.730Z,98217.80
2018-02-22T07:40:52.272Z,98233.73
2018-02-22T07:43:19.833Z,98227.52
2018-02-22T07:45:47.451Z,98225.32
2018-02-22T07:48:15.023Z,98228.95
2018-02-22T07:50:42.539Z,98225.03
2018-02-22T07:53:10.067Z,98226.93
2018-02-22T07:55:37.592Z,98230.06
2018-02-22T07:58:05.188Z,98212.39
2018-02-22T08:00:32.727Z,98220.92
2018-02-22T08:03:00.224Z,98220.59
2018-02-22T08:05:27.764Z,98216.14
2018-02-22T08:07:55.328Z,98215.77
2018-02-22T08:10:22.855Z,98222.16
2018-02-22T08:12:50.485Z,98216.32
2018-02-22T08:15:18.011Z,98206.97
2018-02-22T08:17:45.566Z,98213.83
2018-02-22T08:20:13.136Z,98216.16
2018-02-22T08:22:40.636Z,98221.02
2018-02-22T08:25:08.152Z,98213.02
2018-02-22T08:27:36.607Z,98218.34
2018-02-22T08:30:04.126Z,98208.05
2018-02-22T08:32:31.628Z,98217.02
2018-02-22T08:34:59.149Z,98212.88
2018-02-22T08:37:26.644Z,98218.92
2018-02-22T08:39:54.160Z,98210.30
2018-02-22T08:42:21.704Z,98211.17
2018-02-22T08:44:49.263Z,98203.68
2018-02-22T08:47:16.859Z,98208.92
2018-02-22T08:49:44.371Z,98206.94
2018-02-22T08:52:11.882Z,98209.17
2018-02-22T08:54:39.488Z,98201.64
2018-02-22T08:57:07.029Z,98203.30
2018-02-22T08:59:34.546Z,98199.32
2018-02-22T09:02:02.151Z,98193.37
2018-02-22T09:04:29.668Z,98206.62
2018-02-22T09:06:57.285Z,98203.22
2018-02-22T09:09:24.950Z,98196.41
2018-02-22T09:11:52.444Z,98196.42
2018-02-22T09:14:19.967Z,98204.67
2018-02-22T09:16:47.463Z,98209.59
2018-02-22T09:19:14.980Z,98208.48
2018-02-22T09:21:42.565Z,98204.88
2018-02-22T09:24:10.158Z,98218.19
2018-02-22T09:26:37.743Z,98208.34
2018-02-22T09:29:05.317Z,98207.64
2018-02-22T09:31:32.836Z,98211.61
2018-02-22T09:34:00.346Z,98213.11
2018-02-22T09:36:27.901Z,98212.75
2018-02-22T09:38:55.430Z,98210.06
2018-02-22T09:41:22.955Z,98209.66
2018-02-22T09:43:50.481Z,98214.43
2018-02-22T09:46:18.024Z,98213.77
2018-02-22T09:48:45.525Z,98214.99
2018-02-22T09:51:13.055Z,98209.45
2018-02-22T09:53:40.546Z,98213.16
2018-02-22T09:56:08.059Z,98213.00
2018-02-22T09:58:35.620Z,98218.67
2018-02-22T10:01:03.176Z,98211.63
2018-02-22T10:03:30.672Z,98215.92
2018-02-22T10:05:58.184Z,98217.42
2018-02-22T10:08:25.732Z,98205.56
2018-02-22T10:10:53.276Z,98208.63
2018-02-22T10:13:20.780Z,98219.48
2018-02-22T10:15:48.336Z,98215.39
2018-02-22T10:18:15.834Z,98220.13
2018-02-22T10:20:43.604Z,98219.34
2018-02-22T10:23:11.099Z,98223.75
2018-02-22T10:25:38.671Z,98222.50
2018-02-22T10:28:07.175Z,98220.14
2018-02-22T10:30:34.831Z,98217.23
2018-02-22T10:33:02.364Z,98216.55
2018-02-22T10:35:29.919Z,98210.41
2018-02-22T10:37:57.428Z,98210.06
2018-02-22T10:40:24.988Z,98214.18
2018-02-22T10:42:52.512Z,98214.62
2018-02-22T10:45:20.028Z,98206.14
2018-02-22T10:47:47.535Z,98201.30
2018-02-22T10:50:15.048Z,98211.19
2018-02-22T10:52:42.546Z,98205.98
2018-02-22T10:55:11.024Z,98206.88
2018-02-22T10:57:38.536Z,98206.62
2018-02-22T11:00:06.056Z,98203.45
2018-02-22T11:02:39.164Z,98207.36
2018-02-22T11:05:06.676Z,98204.20
2018-02-22T11:07:34.196Z,98198.51
2018-02-22T11:10:01.684Z,98202.23
2018-02-22T11:12:29.213Z,98200.70
2018-02-22T11:14:56.710Z,98201.66
2018-02-22T11:17:24.258Z,98192.65
2018-02-22T11:19:51.925Z,98200.81
2018-02-22T11:22:19.442Z,98192.90
2018-02-22T11:24:47.855Z,98196.64
2018-02-22T11:27:15.363Z,98193.70
2018-02-22T11:29:42.859Z,98186.73
2018-02-22T11:32:10.364Z,98182.77
2018-02-22T11:34:37.870Z,98184.44
2018-02-22T11:37:05.384Z,98182.91
2018-02-22T11:39:32.940Z,98181.64
2018-02-22T11:42:00.454Z,98180.31
2018-02-22T11:44:27.973Z,98177.27
2018-02-22T11:46:55.529Z,98180.06
2018-02-22T11:49:23.076Z,98183.20
2018-02-22T11:51:50.629Z,98178.52
2018-02-22T11:54:18.112Z,98175.20
2018-02-22T11:56:45.652Z,98177.34
2018-02-22T11:59:13.152Z,98174.41
2018-02-22T12:01:40.664Z,98178.84
2018-02-22T12:04:08.238Z,98177.84
2018-02-22T12:06:35.753Z,98173.00
2018-02-22T12:09:03.247Z,98175.72
2018-02-22T12:11:30.771Z,98170.25
2018-02-22T12:13:58.360Z,98175.52
2018-02-22T12:16:25.879Z,98170.34
2018-02-22T12:18:53.371Z,98178.04
2018-02-22T12:21:20.968Z,98171.12
2018-02-22T12:23:48.499Z,98173.49
2018-02-22T12:26:16.064Z,98173.57
2018-02-22T12:28:43.561Z,98170.13
2018-02-22T12:31:11.079Z,98172.11
2018-02-22T12:33:38.635Z,98173.17
2018-02-22T12:36:06.152Z,98173.31
2018-02-22T12:38:33.639Z,98169.36
2018-02-22T12:41:01.145Z,98165.50
2018-02-22T12:43:28.695Z,98167.70
2018-02-22T12:45:56.232Z,98166.34
2018-02-22T12:48:23.776Z,98167.22
2018-02-22T12:50:51.295Z,98166.80
2018-02-22T12:53:18.868Z,98167.05
2018-02-22T12:55:46.376Z,98163.70
2018-02-22T12:58:13.887Z,98159.55
2018-02-22T13:00:41.423Z,98162.67
2018-02-22T13:03:08.931Z,98163.77
2018-02-22T13:05:36.453Z,98166.09
2018-02-22T13:08:04.235Z,98172.34
2018-02-22T13:10:31.728Z,98162.11
2018-02-22T13:12:59.252Z,98163.95
2018-02-22T13:15:26.747Z,98165.12
2018-02-22T13:17:54.299Z,98168.35
2018-02-22T13:20:21.804Z,98163.92
2018-02-22T13:22:49.319Z,98164.81
2018-02-22T13:25:16.817Z,98169.13
2018-02-22T13:27:44.333Z,98159.70
2018-02-22T13:30:11.845Z,98165.14
2018-02-22T13:32:51.245Z,98160.30
2018-02-22T13:35:18.794Z,98162.09
2018-02-22T13:40:48.935Z,98167.36
2018-02-22T13:43:16.450Z,98165.36
2018-02-22T13:45:43.941Z,98166.39
2018-02-22T13:48:11.515Z,98168.06
2018-02-22T13:50:50.848Z,98167.36
2018-02-22T13:53:18.363Z,98164.98
2018-02-22T13:55:45.871Z,98168.14
2018-02-22T13:58:13.387Z,98169.95
2018-02-22T14:00:52.759Z,98169.51
2018-02-22T14:03:20.282Z,98173.58
2018-02-22T14:05:47.774Z,98173.25
2018-02-22T14:08:27.320Z,98171.84
2018-02-22T14:10:54.893Z,98177.70
2018-02-22T14:13:22.424Z,98174.81
2018-02-22T14:15:49.911Z,98174.29
2018-02-22T14:18:17.440Z,98180.27
2018-02-22T14:20:45.545Z,98188.09
2018-02-22T14:23:13.135Z,98183.82
2018-02-22T14:25:40.619Z,98178.13
2018-02-22T14:28:08.142Z,98178.48
2018-02-22T14:30:35.638Z,98175.36
2018-02-22T14:33:03.147Z,98176.83
2018-02-22T14:35:30.680Z,98184.30
2018-02-22T14:37:58.191Z,98175.02
2018-02-22T14:40:25.692Z,98183.56
2018-02-22T14:42:53.212Z,98180.99
2018-02-22T14:45:20.708Z,98180.50
2018-02-22T14:47:48.560Z,98177.02
2018-02-22T14:50:16.052Z,98185.63
2018-02-22T14:52:43.592Z,98180.30
2018-02-22T14:55:11.155Z,98185.53
2018-02-22T14:57:38.711Z,98187.77
2018-02-22T15:00:06.200Z,98173.05
2018-02-22T15:02:33.836Z,98183.38
2018-02-22T15:05:01.396Z,98192.35
2018-02-22T15:07:28.920Z,98196.19
2018-02-22T15:09:56.416Z,98189.92
2018-02-22T15:12:23.936Z,98199.45
2018-02-22T15:14:51.464Z,98195.91
2018-02-22T15:17:18.959Z,98190.26
2018-02-22T15:19:46.508Z,98189.32
2018-02-22T15:22:14.013Z,98189.17
2018-02-22T15:24:41.523Z,98192.53
2018-02-22T15:27:09.029Z,98197.33
2018-02-22T15:29:36.543Z,98192.89
2018-02-22T15:32:04.151Z,98199.48
2018-02-22T15:34:31.663Z,98194.86
2018-02-22T15:36:59.156Z,98209.44
2018-02-22T15:39:26.673Z,98206.59
2018-02-22T15:41:54.164Z,98202.55
2018-02-22T15:44:21.743Z,98208.81
2018-02-22T15:46:50.208Z,98207.86
2018-02-22T15:49:17.726Z,98210.77
2018-02-22T15:51:45.211Z,98207.98
2018-02-22T15:54:12.815Z,98211.70
2018-02-22T15:56:40.308Z,98216.97
2018-02-22T15:59:07.828Z,98218.88
2018-02-22T16:01:36.598Z,98211.39
2018-02-22T16:04:04.108Z,98212.77
2018-02-22T16:06:31.596Z,98212.87
2018-02-22T16:08:59.184Z,98216.92
2018-02-22T16:11:26.679Z,98221.09
2018-02-22T16:13:54.195Z,98221.66
2018-02-22T16:16:21.752Z,98225.52
2018-02-22T16:18:49.299Z,98218.98
2018-02-22T16:21:16.857Z,98225.52
2018-02-22T16:23:44.380Z,98228.52
2018-02-22T16:26:11.872Z,98221.04
2018-02-22T16:28:39.395Z,98222.30
2018-02-22T16:31:06.915Z,98226.83
2018-02-22T16:33:34.424Z,98224.45
2018-02-22T16:36:01.941Z,98216.47
2018-02-22T16:38:29.460Z,98234.14
2018-02-22T16:40:57.052Z,98226.68
2018-02-22T16:43:24.584Z,98233.83
2018-02-22T16:45:52.077Z,98230.98
2018-02-22T16:48:19.610Z,98230.36
2018-02-22T16:50:47.125Z,98239.95
2018-02-22T16:53:14.619Z,98241.47
2018-02-22T16:55:42.207Z,98234.93
2018-02-22T16:58:09.703Z,98241.57
2018-02-22T17:00:37.219Z,98237.26
2018-02-22T17:03:04.752Z,98243.52
2018-02-22T17:05:32.284Z,98240.41
2018-02-22T17:08:00.788Z,98239.83
2018-02-22T17:10:28.319Z,98245.79
2018-02-22T17:12:55.819Z,98245.89
2018-02-22T17:15:23.404Z,98244.03
2018-02-22T17:17:50.961Z,98245.73
2018-02-22T17:20:18.483Z,98244.84
2018-02-22T17:22:45.998Z,98254.52
2018-02-22T17:25:13.524Z,98253.63
2018-02-22T17:27:46.600Z,98254.00
2018-02-22T17:30:19.817Z,98257.47
2018-02-22T17:32:47.307Z,98261.41
2018-02-22T17:35:16.635Z,98260.47
2018-02-22T17:37:44.124Z,98253.94
2018-02-22T17:43:15.500Z,98256.26
2018-02-22T17:45:43.120Z,98255.74
2018-02-22T17:48:10.617Z,98262.95
2018-02-22T17:50:38.155Z,98256.73
2018-02-22T17:53:05.672Z,98256.41
2018-02-22T17:55:33.240Z,98255.74
2018-02-22T17:58:00.735Z,98260.47
2018-02-22T18:00:28.248Z,98265.79
2018-02-22T18:02:55.760Z,98256.69
2018-02-22T18:05:23.292Z,98266.26
2018-02-22T18:07:50.796Z,98257.00
2018-02-22T18:10:18.358Z,98256.05
2018-02-22T18:12:45.877Z,98263.52
2018-02-22T18:15:13.452Z,98259.25
2018-02-22T18:17:40.976Z,98262.16
2018-02-22T18:20:08.505Z,98263.58
2018-02-22T18:22:36.000Z,98262.27
2018-02-22T18:25:03.537Z,98256.63
2018-02-22T18:27:31.040Z,98260.84
2018-02-22T18:29:58.648Z,98263.53
2018-02-22T18:32:26.137Z,98263.90
2018-02-22T18:34:53.750Z,98266.48
2018-02-22T18:37:26.887Z,98266.27
2018-02-22T18:39:54.399Z,98257.52
2018-02-22T18:42:21.924Z,98265.91
2018-02-22T18:44:55.084Z,98259.80
2018-02-22T18:47:22.590Z,98256.70
2018-02-22T18:49:50.099Z,98251.90
2018-02-22T18:52:17.626Z,98267.20
2018-02-22T18:54:45.211Z,98257.27
2018-02-22T18:57:12.711Z,98262.79
2018-02-22T18:59:40.203Z,98259.69
2018-02-22T19:02:07.711Z,98259.64
2018-02-22T19:04:35.198Z,98260.00
2018-02-22T19:07:02.772Z,98262.59
2018-02-22T19:09:30.331Z,98257.10
2018-02-22T19:11:57.923Z,98254.89
2018-02-22T19:14:25.375Z,98265.78
2018-02-22T19:16:53.017Z,98259.96
2018-02-22T19:19:20.503Z,98261.84
2018-02-22T19:21:48.044Z,98262.00
2018-02-22T19:24:15.588Z,98252.62
2018-02-22T19:26:43.252Z,98259.69
2018-02-22T19:29:11.702Z,98261.31
2018-02-22T19:31:39.284Z,98256.69
2018-02-22T19:34:06.771Z,98252.47
2018-02-22T19:36:34.306Z,98253.27
2018-02-22T19:39:01.799Z,98253.16
2018-02-22T19:41:29.323Z,98250.73
2018-02-22T19:43:56.887Z,98243.36
2018-02-22T19:46:24.403Z,98242.94
2018-02-22T19:48:52.010Z,98240.41
2018-02-22T19:51:20.479Z,98242.20
2018-02-22T19:53:48.050Z,98249.73
2018-02-22T19:56:15.620Z,98234.67
2018-02-22T19:58:43.116Z,98235.41
2018-02-22T20:01:10.636Z,98237.84
2018-02-22T20:03:38.132Z,98236.98
2018-02-22T20:06:05.643Z,98232.77
2018-02-22T20:08:33.207Z,98232.40
2018-02-22T20:11:00.723Z,98229.45
2018-02-22T20:13:29.216Z,98229.89
2018-02-22T20:15:56.816Z,98229.31
2018-02-22T20:18:24.303Z,98237.25
2018-02-22T20:20:51.824Z,98241.09
2018-02-22T20:23:19.380Z,98229.67
2018-02-22T20:25:46.887Z,98239.72
2018-02-22T20:28:14.382Z,98236.72
2018-02-22T20:30:41.920Z,98227.55
2018-02-22T20:33:09.516Z,98245.05
2018-02-22T20:35:37.079Z,98234.41
2018-02-22T20:38:04.605Z,98241.92
2018-02-22T20:40:32.092Z,98240.98
2018-02-22T20:42:59.603Z,98237.62
2018-02-22T20:45:27.091Z,98237.52
2018-02-22T20:47:54.628Z,98240.05
2018-02-22T20:50:22.143Z,98235.67
2018-02-22T20:52:53.620Z,98240.56
2018-02-22T20:55:22.965Z,98238.36
2018-02-22T20:57:50.483Z,98242.93
2018-02-22T21:00:17.973Z,98231.72
2018-02-22T21:02:45.504Z,98234.72
2018-02-22T21:05:13.031Z,98239.63
2018-02-22T21:07:40.544Z,98232.93
2018-02-22T21:10:08.066Z,98234.83
2018-02-22T21:12:35.580Z,98231.34
2018-02-22T21:15:03.071Z,98227.76
2018-02-22T21:17:30.584Z,98238.72
2018-02-22T21:19:58.072Z,98229.52
2018-02-22T21:22:25.604Z,98240.45
2018-02-22T21:24:53.091Z,98233.03
2018-02-22T21:27:20.636Z,98228.20
2018-02-22T21:29:48.208Z,98238.41
2018-02-22T21:32:15.723Z,98234.05
2018-02-22T21:34:43.330Z,98234.94
2018-02-22T21:37:10.847Z,98236.09
2018-02-22T21:39:38.336Z,98233.57
2018-02-22T21:42:05.996Z,98236.88
2018-02-22T21:44:33.520Z,98240.20
2018-02-22T21:47:01.031Z,98240.98
2018-02-22T21:49:28.581Z,98242.19
2018-02-22T21:51:56.103Z,98237.99
2018-02-22T21:54:23.587Z,98236.72
2018-02-22T21:56:51.163Z,98235.09
2018-02-22T21:59:18.660Z,98238.66
2018-02-22T22:01:46.171Z,98244.16
2018-02-22T22:04:13.664Z,98238.52
2018-02-22T22:06:41.196Z,98236.09
2018-02-22T22:09:08.685Z,98235.09
2018-02-22T22:11:36.176Z,98239.15
2018-02-22T22:14:03.775Z,98232.84
2018-02-22T22:16:31.301Z,98235.78
2018-02-22T22:18:58.903Z,98240.53
2018-02-22T22:21:26.400Z,98239.79
2018-02-22T22:23:53.916Z,98241.09
2018-02-22T22:26:21.416Z,98235.05
2018-02-22T22:28:48.980Z,98233.63
2018-02-22T22:31:16.479Z,98236.09
2018-02-22T22:33:43.988Z,98232.58
2018-02-22T22:36:11.495Z,98231.27
2018-02-22T22:38:39.075Z,98233.94
2018-02-22T22:41:06.564Z,98230.72
2018-02-22T22:43:34.185Z,98227.26
2018-02-22T22:46:01.701Z,98233.78
2018-02-22T22:48:29.215Z,98233.84
2018-02-22T22:50:56.728Z,98232.95
2018-02-22T22:53:24.308Z,98233.84
2018-02-22T22:55:51.877Z,98229.41
2018-02-22T22:58:19.483Z,98222.41
2018-02-22T23:00:46.969Z,98219.47
2018-02-22T23:03:14.554Z,98233.50
2018-02-22T23:05:42.108Z,98234.14
2018-02-22T23:08:09.620Z,98235.67
2018-02-22T23:10:37.112Z,98235.20
2018-02-22T23:13:04.624Z,98237.03
2018-02-22T23:15:32.111Z,98234.78
2018-02-22T23:17:59.631Z,98226.97
2018-02-22T23:20:27.139Z,98227.30
2018-02-22T23:22:54.692Z,98219.84
2018-02-22T23:25:23.207Z,98227.08
2018-02-22T23:27:50.729Z,98224.55
2018-02-22T23:30:18.323Z,98222.45
2018-02-22T23:32:45.838Z,98228.61
2018-02-22T23:35:13.348Z,98231.70
2018-02-22T23:37:40.912Z,98234.30
2018-02-22T23:40:15.023Z,98233.45
2018-02-22T23:42:43.504Z,98228.98
2018-02-22T23:45:11.059Z,98230.14
2018-02-22T23:47:38.622Z,98230.09
2018-02-22T23:50:06.115Z,98238.86
2018-02-22T23:52:33.640Z,98232.30
2018-02-22T23:55:01.165Z,98233.59
2018-02-22T23:57:28.756Z,98234.30
2018-02-22T23:59:56.272Z,98232.02
